sensor_id;sensor_type;location;lat;lon;timestamp;pressure;altitude;pressure_sealevel;temperature;humidity
20077;BME280;12348;42.710;23.378;2023-11-19T00:01:01;95052.09;;;3.47;100.00
20077;BME280;12348;42.710;23.378;2023-11-19T00:03:30;95055.75;;;3.41;100.00
20077;BME280;12348;42.710;23.378;2023-11-19T00:05:58;95050.06;;;3.32;100.00
20077;BME280;12348;42.710;23.378;2023-11-19T00:08:26;95061.97;;;3.30;100.00
20077;BME280;12348;42.710;23.378;2023-11-19T00:10:54;95045.69;;;3.26;100.00
20077;BME280;12348;42.710;23.378;2023-11-19T00:13:21;95057.88;;;3.22;100.00
20077;BME280;12348;42.710;23.378;2023-11-19T00:15:48;95057.56;;;3.19;100.00
20077;BME280;12348;42.710;23.378;2023-11-19T00:18:15;95057.94;;;3.27;100.00
20077;BME280;12348;42.710;23.378;2023-11-19T00:20:41;95054.97;;;3.24;100.00
20077;BME280;12348;42.710;23.378;2023-11-19T00:23:10;95045.06;;;3.19;100.00
20077;BME280;12348;42.710;23.378;2023-11-19T00:25:37;95067.16;;;3.20;100.00
20077;BME280;12348;42.710;23.378;2023-11-19T00:28:06;95062.31;;;3.16;100.00
20077;BME280;12348;42.710;23.378;2023-11-19T00:30:33;95059.19;;;3.20;100.00
20077;BME280;12348;42.710;23.378;2023-11-19T00:33:01;95065.13;;;3.27;100.00
20077;BME280;12348;42.710;23.378;2023-11-19T00:35:27;95068.41;;;3.34;100.00
20077;BME280;12348;42.710;23.378;2023-11-19T00:37:54;95072.38;;;3.31;100.00
20077;BME280;12348;42.710;23.378;2023-11-19T00:40:21;95064.06;;;3.28;100.00
20077;BME280;12348;42.710;23.378;2023-11-19T00:42:48;95065.28;;;3.20;100.00
20077;BME280;12348;42.710;23.378;2023-11-19T00:45:17;95069.97;;;3.13;100.00
20077;BME280;12348;42.710;23.378;2023-11-19T00:47:43;95081.41;;;3.13;100.00
20077;BME280;12348;42.710;23.378;2023-11-19T00:50:10;95062.25;;;3.11;100.00
20077;BME280;12348;42.710;23.378;2023-11-19T00:52:38;95080.06;;;3.11;100.00
20077;BME280;12348;42.710;23.378;2023-11-19T00:55:06;95071.78;;;3.07;100.00
20077;BME280;12348;42.710;23.378;2023-11-19T00:57:32;95083.69;;;3.05;100.00
20077;BME280;12348;42.710;23.378;2023-11-19T00:59:59;95066.38;;;3.02;100.00
20077;BME280;12348;42.710;23.378;2023-11-19T01:02:28;95071.69;;;3.02;100.00
20077;BME280;12348;42.710;23.378;2023-11-19T01:04:54;95071.28;;;3.10;100.00
20077;BME280;12348;42.710;23.378;2023-11-19T01:07:22;95077.78;;;3.20;100.00
20077;BME280;12348;42.710;23.378;2023-11-19T01:09:49;95086.84;;;3.19;100.00
20077;BME280;12348;42.710;23.378;2023-11-19T01:12:17;95079.91;;;3.18;100.00
20077;BME280;12348;42.710;23.378;2023-11-19T01:14:43;95084.66;;;3.15;100.00
20077;BME280;12348;42.710;23.378;2023-11-19T01:17:10;95095.56;;;3.14;100.00
20077;BME280;12348;42.710;23.378;2023-11-19T01:19:38;95085.41;;;3.11;100.00
20077;BME280;12348;42.710;23.378;2023-11-19T01:22:05;95068.78;;;3.04;100.00
20077;BME280;12348;42.710;23.378;2023-11-19T01:24:31;95070.72;;;3.08;100.00
20077;BME280;12348;42.710;23.378;2023-11-19T01:26:59;95081.34;;;3.08;100.00
20077;BME280;12348;42.710;23.378;2023-11-19T01:29:27;95083.75;;;3.10;100.00
20077;BME280;12348;42.710;23.378;2023-11-19T01:31:54;95084.34;;;3.12;100.00
20077;BME280;12348;42.710;23.378;2023-11-19T01:34:21;95085.78;;;3.20;100.00
20077;BME280;12348;42.710;23.378;2023-11-19T01:36:49;95091.47;;;3.28;100.00
20077;BME280;12348;42.710;23.378;2023-11-19T01:39:17;95087.38;;;3.21;100.00
20077;BME280;12348;42.710;23.378;2023-11-19T01:41:45;95084.91;;;3.14;100.00
20077;BME280;12348;42.710;23.378;2023-11-19T01:44:12;95092.31;;;3.12;100.00
20077;BME280;12348;42.710;23.378;2023-11-19T01:46:40;95100.56;;;3.10;100.00
20077;BME280;12348;42.710;23.378;2023-11-19T01:49:08;95090.41;;;3.07;100.00
20077;BME280;12348;42.710;23.378;2023-11-19T01:51:37;95096.19;;;3.04;100.00
20077;BME280;12348;42.710;23.378;2023-11-19T01:54:06;95095.88;;;3.01;100.00
20077;BME280;12348;42.710;23.378;2023-11-19T01:56:34;95105.13;;;2.98;100.00
20077;BME280;12348;42.710;23.378;2023-11-19T01:59:01;95100.88;;;2.97;100.00
20077;BME280;12348;42.710;23.378;2023-11-19T02:01:29;95101.81;;;2.91;100.00
20077;BME280;12348;42.710;23.378;2023-11-19T02:03:57;95097.56;;;2.90;100.00
20077;BME280;12348;42.710;23.378;2023-11-19T02:06:25;95107.66;;;2.88;100.00
20077;BME280;12348;42.710;23.378;2023-11-19T02:08:52;95095.06;;;2.83;100.00
20077;BME280;12348;42.710;23.378;2023-11-19T02:11:21;95091.53;;;2.78;100.00
20077;BME280;12348;42.710;23.378;2023-11-19T02:13:49;95094.72;;;2.80;100.00
20077;BME280;12348;42.710;23.378;2023-11-19T02:16:16;95077.66;;;2.92;100.00
20077;BME280;12348;42.710;23.378;2023-11-19T02:18:43;95076.28;;;2.90;100.00
20077;BME280;12348;42.710;23.378;2023-11-19T02:21:10;95075.09;;;2.81;100.00
20077;BME280;12348;42.710;23.378;2023-11-19T02:23:37;95061.06;;;2.68;100.00
20077;BME280;12348;42.710;23.378;2023-11-19T02:26:12;95049.81;;;2.61;100.00
20077;BME280;12348;42.710;23.378;2023-11-19T02:28:42;95071.44;;;2.53;100.00
20077;BME280;12348;42.710;23.378;2023-11-19T02:31:09;95066.06;;;2.48;100.00
20077;BME280;12348;42.710;23.378;2023-11-19T02:33:37;95067.59;;;2.44;100.00
20077;BME280;12348;42.710;23.378;2023-11-19T02:36:04;95063.47;;;2.36;100.00
20077;BME280;12348;42.710;23.378;2023-11-19T02:38:32;95068.44;;;2.33;100.00
20077;BME280;12348;42.710;23.378;2023-11-19T02:41:00;95059.56;;;2.27;100.00
20077;BME280;12348;42.710;23.378;2023-11-19T02:43:30;95061.56;;;2.20;100.00
20077;BME280;12348;42.710;23.378;2023-11-19T02:46:00;95064.16;;;2.15;100.00
20077;BME280;12348;42.710;23.378;2023-11-19T02:48:27;95063.25;;;2.09;100.00
20077;BME280;12348;42.710;23.378;2023-11-19T02:50:54;95060.03;;;2.07;100.00
20077;BME280;12348;42.710;23.378;2023-11-19T02:53:23;95060.50;;;2.04;100.00
20077;BME280;12348;42.710;23.378;2023-11-19T02:55:53;95067.75;;;2.09;100.00
20077;BME280;12348;42.710;23.378;2023-11-19T02:58:26;95068.75;;;2.19;100.00
20077;BME280;12348;42.710;23.378;2023-11-19T03:00:54;95075.56;;;2.15;100.00
20077;BME280;12348;42.710;23.378;2023-11-19T03:03:24;95076.16;;;2.17;100.00
20077;BME280;12348;42.710;23.378;2023-11-19T03:05:56;95072.19;;;2.20;100.00
20077;BME280;12348;42.710;23.378;2023-11-19T03:08:23;95072.78;;;2.22;100.00
20077;BME280;12348;42.710;23.378;2023-11-19T03:10:50;95072.63;;;2.29;100.00
20077;BME280;12348;42.710;23.378;2023-11-19T03:13:16;95084.38;;;2.33;100.00
20077;BME280;12348;42.710;23.378;2023-11-19T03:15:43;95083.41;;;2.39;100.00
20077;BME280;12348;42.710;23.378;2023-11-19T03:18:10;95072.09;;;2.43;100.00
20077;BME280;12348;42.710;23.378;2023-11-19T03:20:38;95073.13;;;2.42;100.00
20077;BME280;12348;42.710;23.378;2023-11-19T03:23:07;95081.34;;;2.41;100.00
20077;BME280;12348;42.710;23.378;2023-11-19T03:25:33;95082.28;;;2.35;100.00
20077;BME280;12348;42.710;23.378;2023-11-19T03:28:02;95088.19;;;2.37;100.00
20077;BME280;12348;42.710;23.378;2023-11-19T03:30:29;95084.94;;;2.35;100.00
20077;BME280;12348;42.710;23.378;2023-11-19T03:32:56;95074.34;;;2.52;100.00
20077;BME280;12348;42.710;23.378;2023-11-19T03:35:24;95090.47;;;2.62;100.00
20077;BME280;12348;42.710;23.378;2023-11-19T03:37:52;95087.97;;;2.55;100.00
20077;BME280;12348;42.710;23.378;2023-11-19T03:40:19;95090.84;;;2.54;100.00
20077;BME280;12348;42.710;23.378;2023-11-19T03:42:45;95102.31;;;2.54;100.00
20077;BME280;12348;42.710;23.378;2023-11-19T03:45:12;95084.03;;;2.58;100.00
20077;BME280;12348;42.710;23.378;2023-11-19T03:47:39;95106.91;;;2.59;100.00
20077;BME280;12348;42.710;23.378;2023-11-19T03:50:07;95113.28;;;2.58;100.00
20077;BME280;12348;42.710;23.378;2023-11-19T03:52:34;95126.56;;;2.58;100.00
20077;BME280;12348;42.710;23.378;2023-11-19T03:55:03;95115.34;;;2.56;100.00
20077;BME280;12348;42.710;23.378;2023-11-19T03:57:30;95105.19;;;2.53;100.00
20077;BME280;12348;42.710;23.378;2023-11-19T03:59:57;95102.19;;;2.49;100.00
20077;BME280;12348;42.710;23.378;2023-11-19T04:02:25;95111.41;;;2.58;100.00
20077;BME280;12348;42.710;23.378;2023-11-19T04:04:53;95121.66;;;2.66;100.00
20077;BME280;12348;42.710;23.378;2023-11-19T04:07:20;95122.13;;;2.63;100.00
20077;BME280;12348;42.710;23.378;2023-11-19T04:09:47;95125.25;;;2.60;100.00
20077;BME280;12348;42.710;23.378;2023-11-19T04:12:15;95135.34;;;2.58;100.00
20077;BME280;12348;42.710;23.378;2023-11-19T04:14:42;95131.03;;;2.57;100.00
20077;BME280;12348;42.710;23.378;2023-11-19T04:17:09;95140.41;;;2.60;100.00
20077;BME280;12348;42.710;23.378;2023-11-19T04:19:36;95132.69;;;2.58;100.00
20077;BME280;12348;42.710;23.378;2023-11-19T04:22:03;95131.63;;;2.59;100.00
20077;BME280;12348;42.710;23.378;2023-11-19T04:24:30;95133.69;;;2.57;100.00
20077;BME280;12348;42.710;23.378;2023-11-19T04:26:56;95138.94;;;2.52;100.00
20077;BME280;12348;42.710;23.378;2023-11-19T04:29:25;95117.00;;;2.45;100.00
20077;BME280;12348;42.710;23.378;2023-11-19T04:31:51;95135.53;;;2.40;100.00
20077;BME280;12348;42.710;23.378;2023-11-19T04:34:18;95129.09;;;2.36;100.00
20077;BME280;12348;42.710;23.378;2023-11-19T04:36:45;95135.28;;;2.41;100.00
20077;BME280;12348;42.710;23.378;2023-11-19T04:39:11;95145.78;;;2.48;100.00
20077;BME280;12348;42.710;23.378;2023-11-19T04:41:46;95154.69;;;2.42;100.00
20077;BME280;12348;42.710;23.378;2023-11-19T04:44:13;95152.63;;;2.44;100.00
20077;BME280;12348;42.710;23.378;2023-11-19T04:46:42;95146.25;;;2.45;100.00
20077;BME280;12348;42.710;23.378;2023-11-19T04:49:10;95156.66;;;2.47;100.00
20077;BME280;12348;42.710;23.378;2023-11-19T04:51:40;95163.00;;;2.46;100.00
20077;BME280;12348;42.710;23.378;2023-11-19T04:54:08;95169.69;;;2.48;100.00
20077;BME280;12348;42.710;23.378;2023-11-19T04:56:35;95171.06;;;2.51;100.00
20077;BME280;12348;42.710;23.378;2023-11-19T04:59:02;95150.84;;;2.50;100.00
20077;BME280;12348;42.710;23.378;2023-11-19T05:01:31;95169.44;;;2.50;100.00
20077;BME280;12348;42.710;23.378;2023-11-19T05:03:59;95163.31;;;2.49;100.00
20077;BME280;12348;42.710;23.378;2023-11-19T05:06:26;95175.00;;;2.48;100.00
20077;BME280;12348;42.710;23.378;2023-11-19T05:08:54;95172.59;;;2.47;100.00
20077;BME280;12348;42.710;23.378;2023-11-19T05:11:21;95177.25;;;2.39;100.00
20077;BME280;12348;42.710;23.378;2023-11-19T05:13:48;95193.69;;;2.53;100.00
20077;BME280;12348;42.710;23.378;2023-11-19T05:16:15;95193.13;;;2.51;100.00
20077;BME280;12348;42.710;23.378;2023-11-19T05:18:43;95197.16;;;2.54;100.00
20077;BME280;12348;42.710;23.378;2023-11-19T05:21:11;95196.34;;;2.53;100.00
20077;BME280;12348;42.710;23.378;2023-11-19T05:23:37;95185.72;;;2.53;100.00
20077;BME280;12348;42.710;23.378;2023-11-19T05:26:05;95178.47;;;2.49;100.00
20077;BME280;12348;42.710;23.378;2023-11-19T05:28:32;95171.44;;;2.42;100.00
20077;BME280;12348;42.710;23.378;2023-11-19T05:30:58;95173.44;;;2.35;100.00
20077;BME280;12348;42.710;23.378;2023-11-19T05:33:25;95171.47;;;2.31;100.00
20077;BME280;12348;42.710;23.378;2023-11-19T05:35:52;95174.50;;;2.23;100.00
20077;BME280;12348;42.710;23.378;2023-11-19T05:38:20;95185.59;;;2.19;100.00
20077;BME280;12348;42.710;23.378;2023-11-19T05:40:47;95173.84;;;2.15;100.00
20077;BME280;12348;42.710;23.378;2023-11-19T05:43:15;95169.56;;;2.14;100.00
20077;BME280;12348;42.710;23.378;2023-11-19T05:45:42;95189.56;;;2.17;100.00
20077;BME280;12348;42.710;23.378;2023-11-19T05:48:09;95184.66;;;2.26;100.00
20077;BME280;12348;42.710;23.378;2023-11-19T05:50:36;95198.75;;;2.26;100.00
20077;BME280;12348;42.710;23.378;2023-11-19T05:53:03;95194.38;;;2.32;100.00
20077;BME280;12348;42.710;23.378;2023-11-19T05:55:33;95193.41;;;2.38;100.00
20077;BME280;12348;42.710;23.378;2023-11-19T05:58:00;95205.84;;;2.49;100.00
20077;BME280;12348;42.710;23.378;2023-11-19T06:00:28;95210.69;;;2.52;100.00
20077;BME280;12348;42.710;23.378;2023-11-19T06:02:56;95203.50;;;2.53;100.00
20077;BME280;12348;42.710;23.378;2023-11-19T06:05:23;95213.09;;;2.54;100.00
20077;BME280;12348;42.710;23.378;2023-11-19T06:07:49;95222.66;;;2.66;100.00
20077;BME280;12348;42.710;23.378;2023-11-19T06:10:16;95215.16;;;2.63;100.00
20077;BME280;12348;42.710;23.378;2023-11-19T06:12:46;95218.06;;;2.62;100.00
20077;BME280;12348;42.710;23.378;2023-11-19T06:15:13;95238.59;;;2.66;100.00
20077;BME280;12348;42.710;23.378;2023-11-19T06:17:39;95226.53;;;2.76;100.00
20077;BME280;12348;42.710;23.378;2023-11-19T06:20:07;95231.38;;;2.79;100.00
20077;BME280;12348;42.710;23.378;2023-11-19T06:22:34;95218.56;;;2.76;100.00
20077;BME280;12348;42.710;23.378;2023-11-19T06:25:01;95227.19;;;2.83;100.00
20077;BME280;12348;42.710;23.378;2023-11-19T06:27:32;95206.13;;;2.93;100.00
20077;BME280;12348;42.710;23.378;2023-11-19T06:30:00;95227.97;;;2.95;100.00
20077;BME280;12348;42.710;23.378;2023-11-19T06:32:27;95222.72;;;3.00;100.00
20077;BME280;12348;42.710;23.378;2023-11-19T06:34:55;95216.66;;;2.88;100.00
20077;BME280;12348;42.710;23.378;2023-11-19T06:37:22;95204.31;;;2.82;100.00
20077;BME280;12348;42.710;23.378;2023-11-19T06:39:48;95228.84;;;2.84;100.00
20077;BME280;12348;42.710;23.378;2023-11-19T06:42:15;95223.50;;;2.84;100.00
20077;BME280;12348;42.710;23.378;2023-11-19T06:44:42;95221.88;;;2.83;100.00
20077;BME280;12348;42.710;23.378;2023-11-19T06:47:11;95226.19;;;2.84;100.00
20077;BME280;12348;42.710;23.378;2023-11-19T06:49:37;95233.22;;;2.78;100.00
20077;BME280;12348;42.710;23.378;2023-11-19T06:52:04;95217.53;;;2.77;100.00
20077;BME280;12348;42.710;23.378;2023-11-19T06:54:31;95232.03;;;2.86;100.00
20077;BME280;12348;42.710;23.378;2023-11-19T06:56:58;95229.91;;;3.00;100.00
20077;BME280;12348;42.710;23.378;2023-11-19T06:59:25;95233.59;;;2.99;100.00
20077;BME280;12348;42.710;23.378;2023-11-19T07:01:52;95220.78;;;2.96;100.00
20077;BME280;12348;42.710;23.378;2023-11-19T07:04:21;95239.09;;;2.92;100.00
20077;BME280;12348;42.710;23.378;2023-11-19T07:06:48;95235.75;;;2.85;100.00
20077;BME280;12348;42.710;23.378;2023-11-19T07:09:17;95241.06;;;2.85;100.00
20077;BME280;12348;42.710;23.378;2023-11-19T07:11:44;95243.00;;;2.89;100.00
20077;BME280;12348;42.710;23.378;2023-11-19T07:14:12;95234.31;;;2.94;100.00
20077;BME280;12348;42.710;23.378;2023-11-19T07:16:39;95249.50;;;3.10;100.00
20077;BME280;12348;42.710;23.378;2023-11-19T07:19:06;95229.25;;;3.09;100.00
20077;BME280;12348;42.710;23.378;2023-11-19T07:21:35;95248.38;;;3.06;100.00
20077;BME280;12348;42.710;23.378;2023-11-19T07:24:05;95245.00;;;3.11;100.00
20077;BME280;12348;42.710;23.378;2023-11-19T07:26:32;95257.50;;;3.10;100.00
20077;BME280;12348;42.710;23.378;2023-11-19T07:29:02;95266.94;;;3.18;100.00
20077;BME280;12348;42.710;23.378;2023-11-19T07:31:32;95278.56;;;3.29;100.00
20077;BME280;12348;42.710;23.378;2023-11-19T07:33:59;95276.13;;;3.10;100.00
20077;BME280;12348;42.710;23.378;2023-11-19T07:36:26;95276.88;;;2.94;100.00
20077;BME280;12348;42.710;23.378;2023-11-19T07:38:54;95288.63;;;2.98;100.00
20077;BME280;12348;42.710;23.378;2023-11-19T07:41:25;95269.13;;;2.92;100.00
20077;BME280;12348;42.710;23.378;2023-11-19T07:44:00;95278.59;;;3.00;100.00
20077;BME280;12348;42.710;23.378;2023-11-19T07:46:27;95285.28;;;3.03;100.00
20077;BME280;12348;42.710;23.378;2023-11-19T07:48:54;95273.72;;;2.97;100.00
20077;BME280;12348;42.710;23.378;2023-11-19T07:51:21;95277.06;;;3.04;100.00
20077;BME280;12348;42.710;23.378;2023-11-19T07:53:48;95288.88;;;3.25;100.00
20077;BME280;12348;42.710;23.378;2023-11-19T07:56:16;95297.88;;;3.24;100.00
20077;BME280;12348;42.710;23.378;2023-11-19T07:58:43;95294.34;;;3.35;100.00
20077;BME280;12348;42.710;23.378;2023-11-19T08:01:10;95297.19;;;3.46;100.00
20077;BME280;12348;42.710;23.378;2023-11-19T08:03:37;95292.13;;;3.44;100.00
20077;BME280;12348;42.710;23.378;2023-11-19T08:06:05;95300.91;;;3.61;100.00
20077;BME280;12348;42.710;23.378;2023-11-19T08:08:32;95304.22;;;4.02;100.00
20077;BME280;12348;42.710;23.378;2023-11-19T08:11:00;95295.31;;;4.96;100.00
20077;BME280;12348;42.710;23.378;2023-11-19T08:13:28;95298.00;;;5.50;100.00
20077;BME280;12348;42.710;23.378;2023-11-19T08:15:55;95304.47;;;5.27;100.00
20077;BME280;12348;42.710;23.378;2023-11-19T08:18:22;95311.25;;;5.13;98.71
20077;BME280;12348;42.710;23.378;2023-11-19T08:20:48;95326.19;;;5.95;92.28
20077;BME280;12348;42.710;23.378;2023-11-19T08:23:18;95325.09;;;6.71;84.04
20077;BME280;12348;42.710;23.378;2023-11-19T08:25:46;95314.78;;;6.05;83.50
20077;BME280;12348;42.710;23.378;2023-11-19T08:28:13;95318.50;;;5.72;84.92
20077;BME280;12348;42.710;23.378;2023-11-19T08:30:41;95332.84;;;5.11;88.01
20077;BME280;12348;42.710;23.378;2023-11-19T08:33:09;95319.81;;;4.49;92.14
20077;BME280;12348;42.710;23.378;2023-11-19T08:35:36;95316.16;;;4.17;94.29
20077;BME280;12348;42.710;23.378;2023-11-19T08:38:03;95327.63;;;3.83;98.40
20077;BME280;12348;42.710;23.378;2023-11-19T08:40:30;95334.16;;;3.76;99.89
20077;BME280;12348;42.710;23.378;2023-11-19T08:42:57;95327.06;;;3.64;100.00
20077;BME280;12348;42.710;23.378;2023-11-19T08:45:25;95332.59;;;3.46;100.00
20077;BME280;12348;42.710;23.378;2023-11-19T08:47:53;95334.38;;;3.40;100.00
20077;BME280;12348;42.710;23.378;2023-11-19T08:50:20;95323.81;;;3.29;100.00
20077;BME280;12348;42.710;23.378;2023-11-19T08:52:47;95324.97;;;3.21;100.00
20077;BME280;12348;42.710;23.378;2023-11-19T08:55:14;95329.59;;;3.26;100.00
20077;BME280;12348;42.710;23.378;2023-11-19T08:57:41;95347.03;;;3.33;100.00
20077;BME280;12348;42.710;23.378;2023-11-19T09:00:08;95335.13;;;3.53;100.00
20077;BME280;12348;42.710;23.378;2023-11-19T09:02:36;95332.09;;;3.78;98.43
20077;BME280;12348;42.710;23.378;2023-11-19T09:05:05;95327.72;;;3.72;98.11
20077;BME280;12348;42.710;23.378;2023-11-19T09:07:33;95315.69;;;3.86;97.34
20077;BME280;12348;42.710;23.378;2023-11-19T09:09:59;95310.50;;;4.13;94.66
20077;BME280;12348;42.710;23.378;2023-11-19T09:12:26;95306.31;;;4.17;93.29
20077;BME280;12348;42.710;23.378;2023-11-19T09:14:53;95301.13;;;4.10;93.09
20077;BME280;12348;42.710;23.378;2023-11-19T09:17:19;95299.84;;;4.52;92.08
20077;BME280;12348;42.710;23.378;2023-11-19T09:19:46;95308.78;;;6.30;83.78
20077;BME280;12348;42.710;23.378;2023-11-19T09:22:14;95312.44;;;7.19;74.18
20077;BME280;12348;42.710;23.378;2023-11-19T09:24:41;95295.25;;;7.04;73.04
20077;BME280;12348;42.710;23.378;2023-11-19T09:27:09;95321.50;;;7.02;71.90
20077;BME280;12348;42.710;23.378;2023-11-19T09:29:36;95332.03;;;6.67;72.65
20077;BME280;12348;42.710;23.378;2023-11-19T09:32:03;95336.16;;;5.46;77.46
20077;BME280;12348;42.710;23.378;2023-11-19T09:34:30;95321.44;;;5.16;79.87
20077;BME280;12348;42.710;23.378;2023-11-19T09:36:57;95302.75;;;4.50;84.52
20077;BME280;12348;42.710;23.378;2023-11-19T09:39:25;95296.81;;;4.43;84.98
20077;BME280;12348;42.710;23.378;2023-11-19T09:41:52;95285.50;;;4.36;86.10
20077;BME280;12348;42.710;23.378;2023-11-19T09:44:19;95287.00;;;4.27;86.04
20077;BME280;12348;42.710;23.378;2023-11-19T09:46:46;95278.38;;;4.20;87.07
20077;BME280;12348;42.710;23.378;2023-11-19T09:49:14;95283.22;;;4.23;87.55
20077;BME280;12348;42.710;23.378;2023-11-19T09:51:42;95246.50;;;4.08;87.95
20077;BME280;12348;42.710;23.378;2023-11-19T09:54:09;95243.38;;;3.94;89.04
20077;BME280;12348;42.710;23.378;2023-11-19T09:56:40;95258.94;;;4.02;88.42
20077;BME280;12348;42.710;23.378;2023-11-19T09:59:07;95254.72;;;4.06;88.24
20077;BME280;12348;42.710;23.378;2023-11-19T10:01:35;95253.94;;;4.28;88.46
20077;BME280;12348;42.710;23.378;2023-11-19T10:04:03;95258.81;;;4.53;86.21
20077;BME280;12348;42.710;23.378;2023-11-19T10:06:31;95241.13;;;4.69;85.45
20077;BME280;12348;42.710;23.378;2023-11-19T10:08:58;95241.19;;;4.52;85.17
20077;BME280;12348;42.710;23.378;2023-11-19T10:11:25;95246.09;;;4.38;85.20
20077;BME280;12348;42.710;23.378;2023-11-19T10:13:54;95256.88;;;4.26;86.24
20077;BME280;12348;42.710;23.378;2023-11-19T10:16:20;95241.75;;;4.54;85.62
20077;BME280;12348;42.710;23.378;2023-11-19T10:18:49;95259.94;;;4.57;85.34
20077;BME280;12348;42.710;23.378;2023-11-19T10:21:17;95262.63;;;4.40;84.79
20077;BME280;12348;42.710;23.378;2023-11-19T10:23:48;95259.25;;;4.45;86.28
20077;BME280;12348;42.710;23.378;2023-11-19T10:26:16;95248.94;;;4.53;86.16
20077;BME280;12348;42.710;23.378;2023-11-19T10:28:43;95266.25;;;4.73;84.13
20077;BME280;12348;42.710;23.378;2023-11-19T10:31:13;95249.56;;;4.82;83.09
20077;BME280;12348;42.710;23.378;2023-11-19T10:33:39;95246.81;;;4.77;82.69
20077;BME280;12348;42.710;23.378;2023-11-19T10:36:08;95254.78;;;5.26;82.26
20077;BME280;12348;42.710;23.378;2023-11-19T10:38:35;95250.94;;;5.44;80.62
20077;BME280;12348;42.710;23.378;2023-11-19T10:41:01;95249.94;;;5.50;79.77
20077;BME280;12348;42.710;23.378;2023-11-19T10:43:29;95245.06;;;5.42;78.88
20077;BME280;12348;42.710;23.378;2023-11-19T10:46:09;95253.00;;;5.05;79.86
20077;BME280;12348;42.710;23.378;2023-11-19T10:48:38;95261.97;;;5.26;80.40
20077;BME280;12348;42.710;23.378;2023-11-19T10:51:06;95244.72;;;5.06;81.24
20077;BME280;12348;42.710;23.378;2023-11-19T10:53:36;95257.31;;;4.62;82.68
20077;BME280;12348;42.710;23.378;2023-11-19T10:56:06;95250.81;;;4.53;83.93
20077;BME280;12348;42.710;23.378;2023-11-19T10:58:39;95238.81;;;4.55;83.83
20077;BME280;12348;42.710;23.378;2023-11-19T11:01:13;95252.28;;;4.66;83.35
20077;BME280;12348;42.710;23.378;2023-11-19T11:03:44;95243.78;;;4.69;84.08
20077;BME280;12348;42.710;23.378;2023-11-19T11:06:13;95244.31;;;4.93;83.68
20077;BME280;12348;42.710;23.378;2023-11-19T11:08:40;95234.84;;;4.80;82.28
20077;BME280;12348;42.710;23.378;2023-11-19T11:11:07;95235.34;;;4.77;82.45
20077;BME280;12348;42.710;23.378;2023-11-19T11:13:37;95214.63;;;4.62;82.71
20077;BME280;12348;42.710;23.378;2023-11-19T11:16:07;95222.72;;;4.45;84.20
20077;BME280;12348;42.710;23.378;2023-11-19T11:18:35;95216.47;;;4.56;84.63
20077;BME280;12348;42.710;23.378;2023-11-19T11:21:07;95197.84;;;4.61;84.07
20077;BME280;12348;42.710;23.378;2023-11-19T11:27:15;95218.50;;;4.98;83.46
20077;BME280;12348;42.710;23.378;2023-11-19T11:29:51;95226.59;;;5.08;82.48
20077;BME280;12348;42.710;23.378;2023-11-19T11:32:30;95232.97;;;5.07;82.77
20077;BME280;12348;42.710;23.378;2023-11-19T11:35:12;95229.13;;;4.93;82.21
20077;BME280;12348;42.710;23.378;2023-11-19T11:37:47;95216.97;;;4.80;81.98
20077;BME280;12348;42.710;23.378;2023-11-19T11:40:16;95219.03;;;4.73;83.22
20077;BME280;12348;42.710;23.378;2023-11-19T11:42:43;95211.75;;;4.91;83.65
20077;BME280;12348;42.710;23.378;2023-11-19T11:45:10;95200.22;;;5.44;81.63
20077;BME280;12348;42.710;23.378;2023-11-19T11:48:09;95195.72;;;5.18;80.68
20077;BME280;12348;42.710;23.378;2023-11-19T11:50:48;95185.94;;;5.66;79.67
20077;BME280;12348;42.710;23.378;2023-11-19T11:53:18;95185.22;;;6.18;76.67
20077;BME280;12348;42.710;23.378;2023-11-19T11:55:58;95188.41;;;6.20;75.71
20077;BME280;12348;42.710;23.378;2023-11-19T11:58:29;95196.88;;;6.64;74.25
20077;BME280;12348;42.710;23.378;2023-11-19T12:00:58;95206.09;;;7.09;72.51
20077;BME280;12348;42.710;23.378;2023-11-19T12:03:28;95200.75;;;7.09;71.50
20077;BME280;12348;42.710;23.378;2023-11-19T12:05:54;95209.06;;;7.23;70.67
20077;BME280;12348;42.710;23.378;2023-11-19T12:08:26;95191.91;;;7.85;69.70
20077;BME280;12348;42.710;23.378;2023-11-19T12:10:54;95194.59;;;7.80;67.91
20077;BME280;12348;42.710;23.378;2023-11-19T12:13:23;95184.16;;;7.38;69.06
20077;BME280;12348;42.710;23.378;2023-11-19T12:16:09;95185.75;;;7.13;70.05
20077;BME280;12348;42.710;23.378;2023-11-19T12:18:38;95179.88;;;7.62;67.29
20077;BME280;12348;42.710;23.378;2023-11-19T12:21:06;95169.16;;;7.52;67.42
20077;BME280;12348;42.710;23.378;2023-11-19T12:23:44;95176.94;;;7.33;67.58
20077;BME280;12348;42.710;23.378;2023-11-19T12:26:31;95161.91;;;6.96;67.95
20077;BME280;12348;42.710;23.378;2023-11-19T12:29:00;95173.91;;;6.78;69.65
20077;BME280;12348;42.710;23.378;2023-11-19T12:31:29;95173.69;;;6.95;68.97
20077;BME280;12348;42.710;23.378;2023-11-19T12:33:56;95168.63;;;6.99;68.18
20077;BME280;12348;42.710;23.378;2023-11-19T12:36:23;95164.34;;;7.08;67.61
20077;BME280;12348;42.710;23.378;2023-11-19T12:38:52;95147.47;;;7.02;68.98
20077;BME280;12348;42.710;23.378;2023-11-19T12:41:19;95156.03;;;6.99;69.28
20077;BME280;12348;42.710;23.378;2023-11-19T12:43:48;95146.94;;;6.95;70.65
20077;BME280;12348;42.710;23.378;2023-11-19T12:46:19;95140.50;;;7.17;70.43
20077;BME280;12348;42.710;23.378;2023-11-19T12:48:47;95127.31;;;6.54;72.33
20077;BME280;12348;42.710;23.378;2023-11-19T12:51:14;95139.34;;;6.56;72.56
20077;BME280;12348;42.710;23.378;2023-11-19T12:53:52;95135.66;;;6.78;72.28
20077;BME280;12348;42.710;23.378;2023-11-19T12:56:22;95135.09;;;6.71;71.10
20077;BME280;12348;42.710;23.378;2023-11-19T12:58:49;95136.19;;;6.75;71.67
20077;BME280;12348;42.710;23.378;2023-11-19T13:01:17;95129.22;;;6.69;71.86